sensor_id;sensor_type;location;lat;lon;timestamp;temperature;humidity
65472;DHT22;52068;50.710;14.492;2023-06-26T00:02:13;25.76;51.37
65472;DHT22;52068;50.710;14.492;2023-06-26T00:04:38;25.75;51.43
65472;DHT22;52068;50.710;14.492;2023-06-26T00:07:04;25.72;51.44
65472;DHT22;52068;50.710;14.492;2023-06-26T00:09:30;25.73;51.49
65472;DHT22;52068;50.710;14.492;2023-06-26T00:11:55;25.73;51.65
65472;DHT22;52068;50.710;14.492;2023-06-26T00:14:21;25.72;51.75
65472;DHT22;52068;50.710;14.492;2023-06-26T00:16:47;25.72;51.76
65472;DHT22;52068;50.710;14.492;2023-06-26T00:19:14;25.70;51.68
65472;DHT22;52068;50.710;14.492;2023-06-26T00:21:40;25.70;51.71
65472;DHT22;52068;50.710;14.492;2023-06-26T00:24:06;25.70;51.77
65472;DHT22;52068;50.710;14.492;2023-06-26T00:26:31;25.69;51.78
65472;DHT22;52068;50.710;14.492;2023-06-26T00:28:56;25.69;51.83
65472;DHT22;52068;50.710;14.492;2023-06-26T00:31:22;25.67;51.89
65472;DHT22;52068;50.710;14.492;2023-06-26T00:33:47;25.67;51.79
65472;DHT22;52068;50.710;14.492;2023-06-26T00:36:12;25.66;51.82
65472;DHT22;52068;50.710;14.492;2023-06-26T00:38:38;25.65;51.86
65472;DHT22;52068;50.710;14.492;2023-06-26T00:41:03;25.63;51.79
65472;DHT22;52068;50.710;14.492;2023-06-26T00:43:30;25.62;51.94
65472;DHT22;52068;50.710;14.492;2023-06-26T00:45:55;25.62;51.97
65472;DHT22;52068;50.710;14.492;2023-06-26T00:48:21;25.61;51.98
65472;DHT22;52068;50.710;14.492;2023-06-26T00:50:46;25.62;51.78
65472;DHT22;52068;50.710;14.492;2023-06-26T00:53:12;25.61;51.93
65472;DHT22;52068;50.710;14.492;2023-06-26T00:55:37;25.62;52.02
65472;DHT22;52068;50.710;14.492;2023-06-26T00:58:03;25.62;51.97
65472;DHT22;52068;50.710;14.492;2023-06-26T01:00:29;25.61;52.11
65472;DHT22;52068;50.710;14.492;2023-06-26T01:02:54;25.58;52.27
65472;DHT22;52068;50.710;14.492;2023-06-26T01:05:24;25.58;52.21
65472;DHT22;52068;50.710;14.492;2023-06-26T01:07:50;25.56;52.24
65472;DHT22;52068;50.710;14.492;2023-06-26T01:10:16;25.59;52.17
65472;DHT22;52068;50.710;14.492;2023-06-26T01:12:42;25.58;52.08
65472;DHT22;52068;50.710;14.492;2023-06-26T01:15:08;25.58;52.13
65472;DHT22;52068;50.710;14.492;2023-06-26T01:17:36;25.58;52.09
65472;DHT22;52068;50.710;14.492;2023-06-26T01:20:03;25.56;52.09
65472;DHT22;52068;50.710;14.492;2023-06-26T01:23:07;25.53;52.12
65472;DHT22;52068;50.710;14.492;2023-06-26T01:28:25;25.52;52.05
65472;DHT22;52068;50.710;14.492;2023-06-26T01:30:52;25.49;51.99
65472;DHT22;52068;50.710;14.492;2023-06-26T01:33:17;25.49;52.11
65472;DHT22;52068;50.710;14.492;2023-06-26T01:35:43;25.52;52.10
65472;DHT22;52068;50.710;14.492;2023-06-26T01:38:17;25.47;52.20
65472;DHT22;52068;50.710;14.492;2023-06-26T01:40:42;25.47;52.04
65472;DHT22;52068;50.710;14.492;2023-06-26T01:46:15;25.50;52.14
65472;DHT22;52068;50.710;14.492;2023-06-26T01:49:16;25.46;52.26
65472;DHT22;52068;50.710;14.492;2023-06-26T01:51:47;25.46;52.14
65472;DHT22;52068;50.710;14.492;2023-06-26T01:54:21;25.47;52.22
65472;DHT22;52068;50.710;14.492;2023-06-26T01:56:49;25.49;52.20
65472;DHT22;52068;50.710;14.492;2023-06-26T01:59:16;25.50;52.29
65472;DHT22;52068;50.710;14.492;2023-06-26T02:01:43;25.46;52.22
65472;DHT22;52068;50.710;14.492;2023-06-26T02:04:08;25.46;52.18
65472;DHT22;52068;50.710;14.492;2023-06-26T02:06:33;25.49;52.19
65472;DHT22;52068;50.710;14.492;2023-06-26T02:08:59;25.46;52.18
65472;DHT22;52068;50.710;14.492;2023-06-26T02:11:24;25.47;52.13
65472;DHT22;52068;50.710;14.492;2023-06-26T02:13:49;25.47;52.20
65472;DHT22;52068;50.710;14.492;2023-06-26T02:16:15;25.47;52.05
65472;DHT22;52068;50.710;14.492;2023-06-26T02:18:40;25.47;52.13
65472;DHT22;52068;50.710;14.492;2023-06-26T02:21:06;25.47;52.15
65472;DHT22;52068;50.710;14.492;2023-06-26T02:23:32;25.47;52.31
65472;DHT22;52068;50.710;14.492;2023-06-26T02:25:57;25.49;52.19
65472;DHT22;52068;50.710;14.492;2023-06-26T02:28:23;25.45;52.16
65472;DHT22;52068;50.710;14.492;2023-06-26T02:30:48;25.46;52.20
65472;DHT22;52068;50.710;14.492;2023-06-26T02:33:13;25.46;52.19
65472;DHT22;52068;50.710;14.492;2023-06-26T02:35:39;25.47;52.26
65472;DHT22;52068;50.710;14.492;2023-06-26T02:38:04;25.50;52.29
65472;DHT22;52068;50.710;14.492;2023-06-26T02:40:30;25.46;52.19
65472;DHT22;52068;50.710;14.492;2023-06-26T02:42:55;25.45;52.24
65472;DHT22;52068;50.710;14.492;2023-06-26T02:45:20;25.45;52.17
65472;DHT22;52068;50.710;14.492;2023-06-26T02:47:46;25.43;52.16
65472;DHT22;52068;50.710;14.492;2023-06-26T02:50:11;25.41;52.15
65472;DHT22;52068;50.710;14.492;2023-06-26T02:52:36;25.42;52.18
65472;DHT22;52068;50.710;14.492;2023-06-26T02:55:02;25.42;52.15
65472;DHT22;52068;50.710;14.492;2023-06-26T02:57:28;25.38;52.08
65472;DHT22;52068;50.710;14.492;2023-06-26T02:59:53;25.41;52.16
65472;DHT22;52068;50.710;14.492;2023-06-26T03:02:19;25.42;51.98
65472;DHT22;52068;50.710;14.492;2023-06-26T03:04:44;25.38;51.99
65472;DHT22;52068;50.710;14.492;2023-06-26T03:07:09;25.42;51.93
65472;DHT22;52068;50.710;14.492;2023-06-26T03:09:35;25.39;51.96
65472;DHT22;52068;50.710;14.492;2023-06-26T03:12:00;25.38;52.17
65472;DHT22;52068;50.710;14.492;2023-06-26T03:14:26;25.39;52.03
65472;DHT22;52068;50.710;14.492;2023-06-26T03:16:55;25.36;52.06
65472;DHT22;52068;50.710;14.492;2023-06-26T03:19:23;25.35;52.18
65472;DHT22;52068;50.710;14.492;2023-06-26T03:21:48;25.36;52.07
65472;DHT22;52068;50.710;14.492;2023-06-26T03:24:14;25.35;52.09
65472;DHT22;52068;50.710;14.492;2023-06-26T03:26:39;25.34;52.22
65472;DHT22;52068;50.710;14.492;2023-06-26T03:29:04;25.32;52.07
65472;DHT22;52068;50.710;14.492;2023-06-26T03:31:30;25.35;52.31
65472;DHT22;52068;50.710;14.492;2023-06-26T03:33:55;25.35;52.33
65472;DHT22;52068;50.710;14.492;2023-06-26T03:36:20;25.35;52.46
65472;DHT22;52068;50.710;14.492;2023-06-26T03:38:46;25.34;52.41
65472;DHT22;52068;50.710;14.492;2023-06-26T03:41:11;25.34;52.44
65472;DHT22;52068;50.710;14.492;2023-06-26T03:43:36;25.34;52.52
65472;DHT22;52068;50.710;14.492;2023-06-26T03:46:02;25.35;52.41
65472;DHT22;52068;50.710;14.492;2023-06-26T03:48:27;25.35;52.45
65472;DHT22;52068;50.710;14.492;2023-06-26T03:50:53;25.34;52.52
65472;DHT22;52068;50.710;14.492;2023-06-26T03:53:18;25.32;52.51
65472;DHT22;52068;50.710;14.492;2023-06-26T03:55:43;25.31;52.62
65472;DHT22;52068;50.710;14.492;2023-06-26T03:58:09;25.34;52.62
65472;DHT22;52068;50.710;14.492;2023-06-26T04:00:34;25.35;52.57
65472;DHT22;52068;50.710;14.492;2023-06-26T04:03:00;25.31;50.15
65472;DHT22;52068;50.710;14.492;2023-06-26T04:05:25;25.24;49.48
65472;DHT22;52068;50.710;14.492;2023-06-26T04:07:51;25.14;49.59
65472;DHT22;52068;50.710;14.492;2023-06-26T04:10:17;25.05;49.51
65472;DHT22;52068;50.710;14.492;2023-06-26T04:12:42;24.96;50.35
65472;DHT22;52068;50.710;14.492;2023-06-26T04:15:08;24.87;49.65
65472;DHT22;52068;50.710;14.492;2023-06-26T04:17:33;24.81;49.91
65472;DHT22;52068;50.710;14.492;2023-06-26T04:19:59;24.75;50.03
65472;DHT22;52068;50.710;14.492;2023-06-26T04:22:24;24.70;50.04
65472;DHT22;52068;50.710;14.492;2023-06-26T04:24:51;24.67;50.18
65472;DHT22;52068;50.710;14.492;2023-06-26T04:27:17;24.61;50.16
65472;DHT22;52068;50.710;14.492;2023-06-26T04:29:42;24.59;50.61
65472;DHT22;52068;50.710;14.492;2023-06-26T04:32:08;24.56;50.63
65472;DHT22;52068;50.710;14.492;2023-06-26T04:34:33;24.47;50.45
65472;DHT22;52068;50.710;14.492;2023-06-26T04:37:01;24.43;50.62
65472;DHT22;52068;50.710;14.492;2023-06-26T04:39:29;24.39;51.10
65472;DHT22;52068;50.710;14.492;2023-06-26T04:41:54;24.34;50.97
65472;DHT22;52068;50.710;14.492;2023-06-26T04:44:19;24.33;51.01
65472;DHT22;52068;50.710;14.492;2023-06-26T04:46:45;24.29;50.87
65472;DHT22;52068;50.710;14.492;2023-06-26T04:49:10;24.26;51.33
65472;DHT22;52068;50.710;14.492;2023-06-26T04:51:36;24.23;51.03
65472;DHT22;52068;50.710;14.492;2023-06-26T04:54:08;24.20;51.26
65472;DHT22;52068;50.710;14.492;2023-06-26T04:56:33;24.19;51.46
65472;DHT22;52068;50.710;14.492;2023-06-26T04:58:59;24.17;51.54
65472;DHT22;52068;50.710;14.492;2023-06-26T05:01:24;24.16;51.86
65472;DHT22;52068;50.710;14.492;2023-06-26T05:03:50;24.09;51.93
65472;DHT22;52068;50.710;14.492;2023-06-26T05:06:15;24.10;52.24
65472;DHT22;52068;50.710;14.492;2023-06-26T05:08:40;24.06;52.18
65472;DHT22;52068;50.710;14.492;2023-06-26T05:11:06;24.03;52.19
65472;DHT22;52068;50.710;14.492;2023-06-26T05:13:31;24.01;52.46
65472;DHT22;52068;50.710;14.492;2023-06-26T05:15:57;23.98;52.61
65472;DHT22;52068;50.710;14.492;2023-06-26T05:18:22;24.02;52.81
65472;DHT22;52068;50.710;14.492;2023-06-26T05:20:48;23.95;53.02
65472;DHT22;52068;50.710;14.492;2023-06-26T05:23:13;24.02;53.52
65472;DHT22;52068;50.710;14.492;2023-06-26T05:25:41;24.09;53.45
65472;DHT22;52068;50.710;14.492;2023-06-26T05:28:07;24.17;53.34
65472;DHT22;52068;50.710;14.492;2023-06-26T05:30:35;24.30;53.13
65472;DHT22;52068;50.710;14.492;2023-06-26T05:33:02;24.44;52.93
65472;DHT22;52068;50.710;14.492;2023-06-26T05:35:29;24.50;52.74
65472;DHT22;52068;50.710;14.492;2023-06-26T05:37:55;24.63;52.52
65472;DHT22;52068;50.710;14.492;2023-06-26T05:40:21;24.70;52.36
65472;DHT22;52068;50.710;14.492;2023-06-26T05:42:47;24.77;52.24
65472;DHT22;52068;50.710;14.492;2023-06-26T05:45:12;24.84;52.13
65472;DHT22;52068;50.710;14.492;2023-06-26T05:47:38;24.90;51.96
65472;DHT22;52068;50.710;14.492;2023-06-26T05:50:04;24.94;51.86
65472;DHT22;52068;50.710;14.492;2023-06-26T05:52:29;24.99;51.78
65472;DHT22;52068;50.710;14.492;2023-06-26T05:54:56;25.04;51.70
65472;DHT22;52068;50.710;14.492;2023-06-26T05:57:28;25.12;51.56
65472;DHT22;52068;50.710;14.492;2023-06-26T05:59:54;25.14;51.51
65472;DHT22;52068;50.710;14.492;2023-06-26T06:02:20;25.14;51.47
65472;DHT22;52068;50.710;14.492;2023-06-26T06:04:45;25.19;51.42
65472;DHT22;52068;50.710;14.492;2023-06-26T06:07:11;25.21;51.37
65472;DHT22;52068;50.710;14.492;2023-06-26T06:09:36;25.25;51.33
65472;DHT22;52068;50.710;14.492;2023-06-26T06:12:04;25.28;51.30
65472;DHT22;52068;50.710;14.492;2023-06-26T06:14:29;25.31;51.28
65472;DHT22;52068;50.710;14.492;2023-06-26T06:16:55;25.34;51.22
65472;DHT22;52068;50.710;14.492;2023-06-26T06:19:21;25.36;51.14
65472;DHT22;52068;50.710;14.492;2023-06-26T06:21:46;25.36;51.13
65472;DHT22;52068;50.710;14.492;2023-06-26T06:24:12;25.39;51.07
65472;DHT22;52068;50.710;14.492;2023-06-26T06:26:37;25.42;51.05
65472;DHT22;52068;50.710;14.492;2023-06-26T06:29:02;25.43;51.01
65472;DHT22;52068;50.710;14.492;2023-06-26T06:31:28;25.47;51.01
65472;DHT22;52068;50.710;14.492;2023-06-26T06:33:56;25.49;50.95
65472;DHT22;52068;50.710;14.492;2023-06-26T06:36:21;25.49;50.93
65472;DHT22;52068;50.710;14.492;2023-06-26T06:38:47;25.50;50.89
65472;DHT22;52068;50.710;14.492;2023-06-26T06:41:12;25.52;50.94
65472;DHT22;52068;50.710;14.492;2023-06-26T06:43:38;25.58;50.92
65472;DHT22;52068;50.710;14.492;2023-06-26T06:46:04;25.61;50.85
65472;DHT22;52068;50.710;14.492;2023-06-26T06:48:31;25.62;50.81
65472;DHT22;52068;50.710;14.492;2023-06-26T06:50:56;25.63;50.84
65472;DHT22;52068;50.710;14.492;2023-06-26T06:53:22;25.65;50.80
65472;DHT22;52068;50.710;14.492;2023-06-26T06:55:48;25.67;50.79
65472;DHT22;52068;50.710;14.492;2023-06-26T06:58:14;25.65;50.77
65472;DHT22;52068;50.710;14.492;2023-06-26T07:00:44;25.66;50.76
65472;DHT22;52068;50.710;14.492;2023-06-26T07:03:10;25.73;50.74
65472;DHT22;52068;50.710;14.492;2023-06-26T07:05:35;25.69;50.71
65472;DHT22;52068;50.710;14.492;2023-06-26T07:08:01;25.73;50.68
65472;DHT22;52068;50.710;14.492;2023-06-26T07:10:26;25.73;50.66
65472;DHT22;52068;50.710;14.492;2023-06-26T07:12:52;25.73;50.67
65472;DHT22;52068;50.710;14.492;2023-06-26T07:15:17;25.76;50.59
65472;DHT22;52068;50.710;14.492;2023-06-26T07:17:42;25.77;50.67
65472;DHT22;52068;50.710;14.492;2023-06-26T07:20:09;25.77;50.56
65472;DHT22;52068;50.710;14.492;2023-06-26T07:22:40;25.77;50.58
65472;DHT22;52068;50.710;14.492;2023-06-26T07:25:06;25.76;50.60
65472;DHT22;52068;50.710;14.492;2023-06-26T07:27:34;25.79;50.65
65472;DHT22;52068;50.710;14.492;2023-06-26T07:30:00;25.76;50.62
65472;DHT22;52068;50.710;14.492;2023-06-26T07:32:25;25.79;50.63
65472;DHT22;52068;50.710;14.492;2023-06-26T07:34:50;25.80;50.58
65472;DHT22;52068;50.710;14.492;2023-06-26T07:37:16;25.80;50.57
65472;DHT22;52068;50.710;14.492;2023-06-26T07:39:41;25.82;50.54
65472;DHT22;52068;50.710;14.492;2023-06-26T07:42:06;25.83;50.51
65472;DHT22;52068;50.710;14.492;2023-06-26T07:44:32;25.84;50.47
65472;DHT22;52068;50.710;14.492;2023-06-26T07:46:57;25.87;50.47
65472;DHT22;52068;50.710;14.492;2023-06-26T07:49:23;25.89;50.49
65472;DHT22;52068;50.710;14.492;2023-06-26T07:51:48;25.86;50.41
65472;DHT22;52068;50.710;14.492;2023-06-26T07:54:13;25.90;50.45
65472;DHT22;52068;50.710;14.492;2023-06-26T07:57:02;25.89;50.41
65472;DHT22;52068;50.710;14.492;2023-06-26T07:59:29;25.90;50.37
65472;DHT22;52068;50.710;14.492;2023-06-26T08:01:55;25.92;50.37
65472;DHT22;52068;50.710;14.492;2023-06-26T08:04:25;25.90;50.40
65472;DHT22;52068;50.710;14.492;2023-06-26T08:06:53;25.92;50.43
65472;DHT22;52068;50.710;14.492;2023-06-26T08:09:20;25.93;50.38
65472;DHT22;52068;50.710;14.492;2023-06-26T08:11:46;25.96;50.40
65472;DHT22;52068;50.710;14.492;2023-06-26T08:14:11;25.96;50.36
65472;DHT22;52068;50.710;14.492;2023-06-26T08:16:41;25.96;50.36
65472;DHT22;52068;50.710;14.492;2023-06-26T08:19:07;25.97;50.30
65472;DHT22;52068;50.710;14.492;2023-06-26T08:21:32;26.00;50.32
65472;DHT22;52068;50.710;14.492;2023-06-26T08:23:57;26.00;50.32
65472;DHT22;52068;50.710;14.492;2023-06-26T08:26:23;25.98;50.33
65472;DHT22;52068;50.710;14.492;2023-06-26T08:28:48;25.98;50.26
65472;DHT22;52068;50.710;14.492;2023-06-26T08:31:14;26.01;50.23
65472;DHT22;52068;50.710;14.492;2023-06-26T08:33:39;26.03;50.29
65472;DHT22;52068;50.710;14.492;2023-06-26T08:36:05;26.04;50.22
65472;DHT22;52068;50.710;14.492;2023-06-26T08:38:30;26.01;50.21
65472;DHT22;52068;50.710;14.492;2023-06-26T08:40:55;26.03;50.25
65472;DHT22;52068;50.710;14.492;2023-06-26T08:43:21;26.03;50.20
65472;DHT22;52068;50.710;14.492;2023-06-26T08:45:47;26.03;50.22
65472;DHT22;52068;50.710;14.492;2023-06-26T08:48:17;26.04;50.16
65472;DHT22;52068;50.710;14.492;2023-06-26T08:50:43;26.04;50.18
65472;DHT22;52068;50.710;14.492;2023-06-26T08:53:29;26.06;50.15
65472;DHT22;52068;50.710;14.492;2023-06-26T08:55:59;26.07;50.11
65472;DHT22;52068;50.710;14.492;2023-06-26T08:58:24;26.06;50.16
65472;DHT22;52068;50.710;14.492;2023-06-26T09:00:50;26.06;50.11
65472;DHT22;52068;50.710;14.492;2023-06-26T09:03:16;26.04;50.15
65472;DHT22;52068;50.710;14.492;2023-06-26T09:05:42;26.06;50.12
65472;DHT22;52068;50.710;14.492;2023-06-26T09:08:07;26.08;50.09
65472;DHT22;52068;50.710;14.492;2023-06-26T09:10:33;26.06;50.17
65472;DHT22;52068;50.710;14.492;2023-06-26T09:12:59;26.07;50.10
65472;DHT22;52068;50.710;14.492;2023-06-26T09:15:26;26.07;50.13
65472;DHT22;52068;50.710;14.492;2023-06-26T09:17:56;26.08;50.13
65472;DHT22;52068;50.710;14.492;2023-06-26T09:20:21;26.07;50.05
65472;DHT22;52068;50.710;14.492;2023-06-26T09:22:47;26.07;50.10
65472;DHT22;52068;50.710;14.492;2023-06-26T09:25:13;26.08;50.01
65472;DHT22;52068;50.710;14.492;2023-06-26T09:27:39;26.10;50.08
65472;DHT22;52068;50.710;14.492;2023-06-26T09:30:05;26.12;50.04
65472;DHT22;52068;50.710;14.492;2023-06-26T09:32:35;26.10;50.07
65472;DHT22;52068;50.710;14.492;2023-06-26T09:35:02;26.14;50.03
65472;DHT22;52068;50.710;14.492;2023-06-26T09:37:28;26.12;50.00
65472;DHT22;52068;50.710;14.492;2023-06-26T09:39:53;26.12;50.03
65472;DHT22;52068;50.710;14.492;2023-06-26T09:42:19;26.13;49.99
65472;DHT22;52068;50.710;14.492;2023-06-26T09:44:46;26.13;49.94
65472;DHT22;52068;50.710;14.492;2023-06-26T09:47:11;26.14;50.00
65472;DHT22;52068;50.710;14.492;2023-06-26T09:49:41;26.14;49.92
65472;DHT22;52068;50.710;14.492;2023-06-26T09:52:07;26.13;49.94
65472;DHT22;52068;50.710;14.492;2023-06-26T09:54:33;26.14;49.96
65472;DHT22;52068;50.710;14.492;2023-06-26T09:57:08;26.14;49.95
65472;DHT22;52068;50.710;14.492;2023-06-26T09:59:34;26.17;49.94
65472;DHT22;52068;50.710;14.492;2023-06-26T10:02:00;26.16;49.94
65472;DHT22;52068;50.710;14.492;2023-06-26T10:04:26;26.13;49.98
65472;DHT22;52068;50.710;14.492;2023-06-26T10:06:56;26.17;49.97
65472;DHT22;52068;50.710;14.492;2023-06-26T10:09:23;26.16;49.94
65472;DHT22;52068;50.710;14.492;2023-06-26T10:14:26;26.17;49.92
65472;DHT22;52068;50.710;14.492;2023-06-26T10:16:52;26.20;49.91
65472;DHT22;52068;50.710;14.492;2023-06-26T10:19:19;26.20;49.91
65472;DHT22;52068;50.710;14.492;2023-06-26T10:21:53;26.18;49.92
65472;DHT22;52068;50.710;14.492;2023-06-26T10:24:20;26.18;49.83
65472;DHT22;52068;50.710;14.492;2023-06-26T10:26:50;26.18;49.78
65472;DHT22;52068;50.710;14.492;2023-06-26T10:29:17;26.21;49.84
65472;DHT22;52068;50.710;14.492;2023-06-26T10:31:48;26.23;49.79
65472;DHT22;52068;50.710;14.492;2023-06-26T10:34:14;26.20;49.82
65472;DHT22;52068;50.710;14.492;2023-06-26T10:36:40;26.20;49.79
65472;DHT22;52068;50.710;14.492;2023-06-26T10:39:06;26.18;49.83
65472;DHT22;52068;50.710;14.492;2023-06-26T10:41:41;26.21;49.80
65472;DHT22;52068;50.710;14.492;2023-06-26T10:44:09;26.23;49.81
65472;DHT22;52068;50.710;14.492;2023-06-26T10:46:55;26.21;49.77
65472;DHT22;52068;50.710;14.492;2023-06-26T10:49:25;26.23;49.77
65472;DHT22;52068;50.710;14.492;2023-06-26T10:51:51;26.24;49.69
65472;DHT22;52068;50.710;14.492;2023-06-26T10:54:18;26.24;49.75
65472;DHT22;52068;50.710;14.492;2023-06-26T10:56:48;26.23;49.71
65472;DHT22;52068;50.710;14.492;2023-06-26T10:59:17;26.25;49.74
65472;DHT22;52068;50.710;14.492;2023-06-26T11:01:43;26.24;49.69
65472;DHT22;52068;50.710;14.492;2023-06-26T11:04:09;26.27;49.72
65472;DHT22;52068;50.710;14.492;2023-06-26T11:06:39;26.25;49.66
65472;DHT22;52068;50.710;14.492;2023-06-26T11:14:24;26.27;49.65
65472;DHT22;52068;50.710;14.492;2023-06-26T11:16:49;26.27;49.67
65472;DHT22;52068;50.710;14.492;2023-06-26T11:19:17;26.25;49.66
65472;DHT22;52068;50.710;14.492;2023-06-26T11:21:43;26.27;49.62
65472;DHT22;52068;50.710;14.492;2023-06-26T11:24:10;26.25;49.65
65472;DHT22;52068;50.710;14.492;2023-06-26T11:26:43;26.28;49.56
65472;DHT22;52068;50.710;14.492;2023-06-26T11:29:09;26.28;49.62
65472;DHT22;52068;50.710;14.492;2023-06-26T11:31:37;26.28;49.55
65472;DHT22;52068;50.710;14.492;2023-06-26T11:34:05;26.31;49.54
65472;DHT22;52068;50.710;14.492;2023-06-26T11:36:31;26.30;49.53
65472;DHT22;52068;50.710;14.492;2023-06-26T11:38:58;26.31;49.50
65472;DHT22;52068;50.710;14.492;2023-06-26T11:41:26;26.31;49.50
65472;DHT22;52068;50.710;14.492;2023-06-26T11:43:51;26.33;49.53
65472;DHT22;52068;50.710;14.492;2023-06-26T11:46:18;26.33;49.51
65472;DHT22;52068;50.710;14.492;2023-06-26T11:48:44;26.33;49.51
65472;DHT22;52068;50.710;14.492;2023-06-26T11:51:12;26.30;49.53
65472;DHT22;52068;50.710;14.492;2023-06-26T11:53:45;26.34;49.49
65472;DHT22;52068;50.710;14.492;2023-06-26T11:56:12;26.34;49.44
65472;DHT22;52068;50.710;14.492;2023-06-26T11:59:13;26.34;49.53
65472;DHT22;52068;50.710;14.492;2023-06-26T12:01:44;26.34;49.45
65472;DHT22;52068;50.710;14.492;2023-06-26T12:04:14;26.35;49.44
65472;DHT22;52068;50.710;14.492;2023-06-26T12:06:49;26.37;49.41
65472;DHT22;52068;50.710;14.492;2023-06-26T12:09:16;26.37;49.41
65472;DHT22;52068;50.710;14.492;2023-06-26T12:11:44;26.40;49.42
65472;DHT22;52068;50.710;14.492;2023-06-26T12:14:11;26.43;49.28
65472;DHT22;52068;50.710;14.492;2023-06-26T12:16:37;26.41;49.32
65472;DHT22;52068;50.710;14.492;2023-06-26T12:19:08;26.43;49.32
65472;DHT22;52068;50.710;14.492;2023-06-26T12:21:43;26.43;49.33
65472;DHT22;52068;50.710;14.492;2023-06-26T12:24:16;26.44;49.30
65472;DHT22;52068;50.710;14.492;2023-06-26T12:26:46;26.45;49.26
65472;DHT22;52068;50.710;14.492;2023-06-26T12:29:13;26.47;49.22
65472;DHT22;52068;50.710;14.492;2023-06-26T12:31:43;26.48;49.26
65472;DHT22;52068;50.710;14.492;2023-06-26T12:34:10;26.49;49.21
65472;DHT22;52068;50.710;14.492;2023-06-26T12:36:49;26.47;49.20
65472;DHT22;52068;50.710;14.492;2023-06-26T12:39:19;26.49;49.20
65472;DHT22;52068;50.710;14.492;2023-06-26T12:41:49;26.49;49.24
65472;DHT22;52068;50.710;14.492;2023-06-26T12:44:29;26.51;49.27
65472;DHT22;52068;50.710;14.492;2023-06-26T12:46:59;26.51;49.16
65472;DHT22;52068;50.710;14.492;2023-06-26T12:49:33;26.51;49.19
65472;DHT22;52068;50.710;14.492;2023-06-26T12:52:00;26.52;49.22
65472;DHT22;52068;50.710;14.492;2023-06-26T12:54:27;26.51;49.19
65472;DHT22;52068;50.710;14.492;2023-06-26T12:56:52;26.52;49.21
65472;DHT22;52068;50.710;14.492;2023-06-26T12:59:18;26.52;49.12
65472;DHT22;52068;50.710;14.492;2023-06-26T13:01:43;26.52;49.16
65472;DHT22;52068;50.710;14.492;2023-06-26T13:04:09;26.52;49.13
65472;DHT22;52068;50.710;14.492;2023-06-26T13:06:35;26.54;49.09
65472;DHT22;52068;50.710;14.492;2023-06-26T13:09:01;26.58;49.09
65472;DHT22;52068;50.710;14.492;2023-06-26T13:11:33;26.56;49.04
65472;DHT22;52068;50.710;14.492;2023-06-26T13:13:59;26.59;48.97
65472;DHT22;52068;50.710;14.492;2023-06-26T13:16:25;26.62;48.98
65472;DHT22;52068;50.710;14.492;2023-06-26T13:18:50;26.64;48.95
65472;DHT22;52068;50.710;14.492;2023-06-26T13:21:16;26.64;48.97
65472;DHT22;52068;50.710;14.492;2023-06-26T13:23:42;26.67;48.96
65472;DHT22;52068;50.710;14.492;2023-06-26T13:26:08;26.67;48.85
65472;DHT22;52068;50.710;14.492;2023-06-26T13:28:33;26.71;48.89
65472;DHT22;52068;50.710;14.492;2023-06-26T13:30:59;26.69;48.83
65472;DHT22;52068;50.710;14.492;2023-06-26T13:33:24;26.71;48.84
65472;DHT22;52068;50.710;14.492;2023-06-26T13:35:53;26.74;48.80
65472;DHT22;52068;50.710;14.492;2023-06-26T13:38:21;26.75;48.76
65472;DHT22;52068;50.710;14.492;2023-06-26T13:40:51;26.75;48.79
65472;DHT22;52068;50.710;14.492;2023-06-26T13:43:16;26.75;48.74
65472;DHT22;52068;50.710;14.492;2023-06-26T13:45:42;26.75;48.77
65472;DHT22;52068;50.710;14.492;2023-06-26T13:48:07;26.78;48.77
65472;DHT22;52068;50.710;14.492;2023-06-26T13:50:33;26.76;48.82
65472;DHT22;52068;50.710;14.492;2023-06-26T13:52:58;26.79;48.79
65472;DHT22;52068;50.710;14.492;2023-06-26T13:55:23;26.78;48.76
65472;DHT22;52068;50.710;14.492;2023-06-26T13:57:49;26.79;48.73
65472;DHT22;52068;50.710;14.492;2023-06-26T14:00:15;26.84;48.68
65472;DHT22;52068;50.710;14.492;2023-06-26T14:02:45;26.85;48.66
65472;DHT22;52068;50.710;14.492;2023-06-26T14:05:10;26.86;48.68
65472;DHT22;52068;50.710;14.492;2023-06-26T14:07:36;26.86;48.65
65472;DHT22;52068;50.710;14.492;2023-06-26T14:10:03;26.88;48.65
65472;DHT22;52068;50.710;14.492;2023-06-26T14:12:28;26.94;48.57
65472;DHT22;52068;50.710;14.492;2023-06-26T14:14:54;26.89;48.54
65472;DHT22;52068;50.710;14.492;2023-06-26T14:17:19;26.95;48.56
65472;DHT22;52068;50.710;14.492;2023-06-26T14:19:44;26.96;48.56
65472;DHT22;52068;50.710;14.492;2023-06-26T14:22:11;26.96;48.52
65472;DHT22;52068;50.710;14.492;2023-06-26T14:24:36;26.96;48.50
65472;DHT22;52068;50.710;14.492;2023-06-26T14:27:02;26.98;48.52
65472;DHT22;52068;50.710;14.492;2023-06-26T14:29:27;26.99;48.51
65472;DHT22;52068;50.710;14.492;2023-06-26T14:31:53;27.00;48.47
65472;DHT22;52068;50.710;14.492;2023-06-26T14:34:18;26.98;48.51
65472;DHT22;52068;50.710;14.492;2023-06-26T14:36:43;27.02;48.46
65472;DHT22;52068;50.710;14.492;2023-06-26T14:39:09;26.99;48.47
65472;DHT22;52068;50.710;14.492;2023-06-26T14:41:34;27.00;48.46
65472;DHT22;52068;50.710;14.492;2023-06-26T14:43:59;27.03;48.42
65472;DHT22;52068;50.710;14.492;2023-06-26T14:46:26;27.05;48.95
65472;DHT22;52068;50.710;14.492;2023-06-26T14:48:51;27.07;49.11
65472;DHT22;52068;50.710;14.492;2023-06-26T14:51:16;27.06;49.09
65472;DHT22;52068;50.710;14.492;2023-06-26T14:53:42;26.96;49.13
65472;DHT22;52068;50.710;14.492;2023-06-26T14:56:07;26.96;49.17
65472;DHT22;52068;50.710;14.492;2023-06-26T14:58:33;26.92;49.14
65472;DHT22;52068;50.710;14.492;2023-06-26T15:00:58;26.84;49.27
65472;DHT22;52068;50.710;14.492;2023-06-26T15:03:24;26.76;49.42
65472;DHT22;52068;50.710;14.492;2023-06-26T15:05:49;26.69;49.52
65472;DHT22;52068;50.710;14.492;2023-06-26T15:08:15;26.62;49.62
65472;DHT22;52068;50.710;14.492;2023-06-26T15:10:40;26.56;49.72
65472;DHT22;52068;50.710;14.492;2023-06-26T15:13:05;26.51;49.81
65472;DHT22;52068;50.710;14.492;2023-06-26T15:15:32;26.49;49.86
65472;DHT22;52068;50.710;14.492;2023-06-26T15:17:59;26.44;49.91
65472;DHT22;52068;50.710;14.492;2023-06-26T15:20:24;26.38;49.96
65472;DHT22;52068;50.710;14.492;2023-06-26T15:22:50;26.34;50.05
65472;DHT22;52068;50.710;14.492;2023-06-26T15:25:15;26.25;50.30
65472;DHT22;52068;50.710;14.492;2023-06-26T15:27:40;26.21;50.40